AirNav   Bose Proflight Series 2 Wireless Aviation Headset
 
 1077 users online  

PN60 Motola's Paving Heliport
Lehighton, Pennsylvania, USA

GOING TO LEHIGHTON?


FAA INFORMATION EFFECTIVE 07 NOVEMBER 2019

Location

FAA Identifier: PN60
Lat/Long: 40-50-15.9000N 075-41-49.9800W
40-50.265000N 075-41.833000W
40.8377500,-75.6972167
(estimated)
Elevation: 433 ft. / 132 m (estimated)
From city: 5 miles W of LEHIGHTON, PA
Time zone: UTC -5 (UTC -4 during Daylight Saving Time)
Zip code: 18235

Heliport Operations

Heliport use: Private use. Permission required prior to landing
Activation date: 03/2003
Control tower: no
ARTCC: NEW YORK CENTER
FSS: WILLIAMSPORT FLIGHT SERVICE STATION
Attendance: UNATNDD
Wind indicator: yes
Segmented circle: no

Heliport Communications

WX AWOS-3PT at 22N (3 nm SW): 119.350 (570-386-3423)
WX ASOS at ABE (16 nm SE): PHONE 610-266-3579
WX AWOS-3 at HZL (16 nm NW): 119.975 (570-459-4901)
WX AWOS-3 at XLL (19 nm SE): 127.875 (610-231-3111)

Nearby radio navigation aids

VOR radial/distance  VOR name  Freq  Var
FJCr311/12.9ALLENTOWN VORTAC117.5010W
ETXr007/15.4EAST TEXAS VOR/DME110.2009W
LVZr191/26.1WILKES-BARRE VORTAC111.6010W
PTWr359/37.5POTTSTOWN VORTAC116.5009W
STWr267/38.7STILLWATER VOR/DME109.6011W
BWZr284/39.8BROADWAY VOR/DME114.2011W

Heliport Services

Runway Information

Helipad H1

Dimensions: 65 x 65 ft. / 20 x 20 m
Surface: asphalt
Traffic pattern: leftleft

Heliport Ownership and Management from official FAA records

Ownership: Privately-owned
Owner: JOHN MOTOLA
252 FAIRYLAND RD
LEHIGHTON, PA 18235-9022
Phone 610-377-1672
OR 484-894-1672.
Manager: JOHN MOTOLA
252 FAIRYLAND RD
LEHIGHTON, PA 18235-9022
Phone 610-377-1672
OR 484-894-1672.

Additional Remarks

FOR CD CTC ALLENTOWN APCH AT 800-728-6322.

Instrument Procedures

There are no published instrument procedures at PN60.

Some nearby airports with instrument procedures:

22N - Jake Arner Memorial Airport (3 nm SW)
KABE - Lehigh Valley International Airport (16 nm SE)
KHZL - Hazleton Regional Airport (16 nm NW)
KXLL - Allentown Queen City Municipal Airport (19 nm SE)
N43 - Braden Airpark (21 nm E)
 
Loc | Ops | Rwys | IFR | FBO | Links
Com | Nav | Svcs | Stats | Notes
Area around PN60 (Motola's Paving Heliport)
 
Road maps at: MapQuest Bing Google
 
Aerial photo
No photo
 
Sectional chart

 
Airport distance calculator
Flying to Motola's Paving Heliport? Find the distance to fly.

From to PN60

Sunrise and sunset
Times for 21-Nov-2019
 Local
(UTC-5)
 Zulu
(UTC)
Morning civil twilight06:2811:28
Sunrise06:5811:58
Sunset16:3921:39
Evening civil twilight17:0922:09

Current date and time
Zulu (UTC)  22-Nov-2019 00:39:59
Local (UTC-5)  21-Nov-2019 19:39:59
 
METAR
K22N 
3nm SW 
220015Z AUTO 00000KT 10SM SCT120 05/02 A3006 RMK AO2
KABE 
16nm SE 
212351Z 23005KT 10SM CLR 09/00 A3007 RMK AO2 SLP183 T00890000 10122 20083 56013
KHZL 
16nm NW 
220018Z AUTO 18004KT 10SM SCT110 06/M01 A3004 RMK AO2
KXLL 
19nm SE 
220015Z AUTO 21003KT 10SM CLR 08/01 A3008 RMK AO2
TAF
KABE 
16nm SE 
211720Z 2118/2218 24005KT P6SM FEW250 FM212300 VRB03KT P6SM BKN200 FM221400 24006KT P6SM BKN060 FM221600 28012KT 6SM -SHRA BR OVC035
NOTAMs
Click for the latest NOTAMs
NOTAMs are issued by the DoD/FAA and will open in a separate window not controlled by AirNav.

 

 
 

Would you like to see your business listed on this page?

 If your business provides an interesting product or service to pilots, flight crews, aircraft, or users of the Motola's Paving Heliport, you should consider listing it here.  To start the listing process, click on the button below
 
Add a business
 

Other Pages about Motola's Paving Heliport

Update a link
 
Copyright © AirNav, LLC. All rights reserved. Privacy Policy  Contact